createdAt,value
2018-07-21T00:00:18.989Z,22.73
2018-07-21T00:01:18.980Z,22.73
2018-07-21T00:02:19.023Z,22.70
2018-07-21T00:03:18.951Z,22.72
2018-07-21T00:04:18.976Z,22.72
2018-07-21T00:05:18.928Z,22.72
2018-07-21T00:06:18.932Z,22.63
2018-07-21T00:07:18.974Z,22.68
2018-07-21T00:08:18.895Z,22.62
2018-07-21T00:09:18.917Z,22.66
2018-07-21T00:10:18.876Z,22.65
2018-07-21T00:11:18.864Z,22.62
2018-07-21T00:12:18.856Z,22.69
2018-07-21T00:13:18.870Z,22.66
2018-07-21T00:14:18.831Z,22.66
2018-07-21T00:15:18.851Z,22.66
2018-07-21T00:16:18.816Z,22.66
2018-07-21T00:17:18.798Z,22.66
2018-07-21T00:18:18.790Z,22.66
2018-07-21T00:19:18.776Z,22.68
2018-07-21T00:20:18.887Z,22.70
2018-07-21T00:21:18.751Z,22.68
2018-07-21T00:22:18.750Z,22.73
2018-07-21T00:23:18.757Z,22.75
2018-07-21T00:24:18.743Z,22.72
2018-07-21T00:25:18.704Z,22.73
2018-07-21T00:26:18.698Z,22.69
2018-07-21T00:27:18.683Z,22.70
2018-07-21T00:28:18.701Z,22.72
2018-07-21T00:29:18.686Z,22.72
2018-07-21T00:30:18.648Z,22.72
2018-07-21T00:31:18.673Z,22.68
2018-07-21T00:32:18.632Z,22.70
2018-07-21T00:33:18.644Z,22.69
2018-07-21T00:34:18.635Z,22.72
2018-07-21T00:35:18.599Z,22.78
2018-07-21T00:36:18.613Z,22.75
2018-07-21T00:37:18.569Z,22.72
2018-07-21T00:38:18.586Z,22.70
2018-07-21T00:39:18.587Z,22.70
2018-07-21T00:40:18.539Z,22.75
2018-07-21T00:41:18.531Z,22.72
2018-07-21T00:42:18.545Z,22.72
2018-07-21T00:43:18.510Z,22.75
2018-07-21T00:44:18.502Z,22.70
2018-07-21T00:45:18.519Z,22.62
2018-07-21T00:46:18.500Z,22.65
2018-07-21T00:47:18.484Z,22.63
2018-07-21T00:48:18.455Z,22.66
2018-07-21T00:49:18.442Z,22.65
2018-07-21T00:50:18.428Z,22.62
2018-07-21T00:51:18.459Z,22.59
2018-07-21T00:52:18.413Z,22.44
2018-07-21T00:53:18.402Z,22.54
2018-07-21T00:54:18.385Z,22.45
2018-07-21T00:55:18.370Z,22.48
2018-07-21T00:56:18.424Z,22.41
2018-07-21T00:57:18.403Z,22.48
2018-07-21T00:58:18.339Z,22.36
2018-07-21T00:59:18.334Z,22.38
2018-07-21T01:00:18.316Z,22.44
2018-07-21T01:01:18.333Z,22.32
2018-07-21T01:02:18.301Z,22.35
2018-07-21T01:03:18.287Z,22.30
2018-07-21T01:04:18.279Z,22.29
2018-07-21T01:05:18.288Z,22.28
2018-07-21T01:06:18.252Z,22.28
2018-07-21T01:07:18.288Z,22.23
2018-07-21T01:08:18.227Z,22.20
2018-07-21T01:09:18.217Z,22.28
2018-07-21T01:10:18.206Z,22.26
2018-07-21T01:11:18.194Z,22.23
2018-07-21T01:12:18.437Z,22.28
2018-07-21T01:13:18.172Z,22.23
2018-07-21T01:14:18.172Z,22.29
2018-07-21T01:15:18.185Z,22.29
2018-07-21T01:16:18.138Z,22.20
2018-07-21T01:17:18.127Z,22.23
2018-07-21T01:18:18.117Z,22.10
2018-07-21T01:19:18.152Z,22.15
2018-07-21T01:20:18.135Z,22.18
2018-07-21T01:21:18.081Z,22.13
2018-07-21T01:22:18.082Z,22.17
2018-07-21T01:23:18.060Z,22.11
2018-07-21T01:24:18.050Z,22.13
2018-07-21T01:25:18.073Z,22.11
2018-07-21T01:26:18.023Z,22.11
2018-07-21T01:27:18.017Z,22.13
2018-07-21T01:28:18.009Z,22.18
2018-07-21T01:29:18.028Z,22.17
2018-07-21T01:30:17.982Z,22.18
2018-07-21T01:31:17.971Z,22.25
2018-07-21T01:32:17.989Z,22.14
2018-07-21T01:33:17.991Z,22.26
2018-07-21T01:34:17.982Z,22.26
2018-07-21T01:35:17.952Z,22.26
2018-07-21T01:36:17.918Z,22.26
2018-07-21T01:37:17.907Z,22.26
2018-07-21T01:38:17.892Z,22.10
2018-07-21T01:39:17.919Z,22.10
2018-07-21T01:40:17.871Z,22.18
2018-07-21T01:41:17.860Z,22.13
2018-07-21T01:42:17.878Z,22.11
2018-07-21T01:43:17.842Z,22.14
2018-07-21T01:44:17.825Z,22.00
2018-07-21T01:45:17.815Z,22.06
2018-07-21T01:46:17.842Z,22.04
2018-07-21T01:47:17.797Z,21.99
2018-07-21T01:48:17.802Z,21.95
2018-07-21T01:49:17.773Z,22.06
2018-07-21T01:50:17.766Z,21.98
2018-07-21T01:51:17.777Z,21.98
2018-07-21T01:52:17.765Z,21.95
2018-07-21T01:53:17.760Z,21.91
2018-07-21T01:54:17.714Z,21.91
2018-07-21T01:55:17.701Z,21.88
2018-07-21T01:56:17.698Z,21.85
2018-07-21T01:57:17.685Z,21.82
2018-07-21T01:58:17.726Z,21.79
2018-07-21T01:59:17.667Z,21.77
2018-07-21T02:00:17.653Z,21.75
2018-07-21T02:01:17.637Z,21.75
2018-07-21T02:02:17.622Z,21.77
2018-07-21T02:03:17.658Z,21.85
2018-07-21T02:04:17.611Z,21.80
2018-07-21T02:05:17.596Z,21.82
2018-07-21T02:06:17.580Z,21.83
2018-07-21T02:07:17.572Z,21.76
2018-07-21T02:08:17.583Z,21.83
2018-07-21T02:09:17.555Z,21.72
2018-07-21T02:10:17.568Z,21.75
2018-07-21T02:11:17.526Z,21.73
2018-07-21T02:12:17.527Z,21.75
2018-07-21T02:13:17.511Z,21.73
2018-07-21T02:14:17.490Z,21.72
2018-07-21T02:15:17.556Z,21.76
2018-07-21T02:16:17.507Z,21.79
2018-07-21T02:17:17.469Z,21.85
2018-07-21T02:18:17.456Z,21.70
2018-07-21T02:19:17.438Z,21.83
2018-07-21T02:20:17.460Z,21.73
2018-07-21T02:21:17.418Z,21.82
2018-07-21T02:22:17.407Z,21.73
2018-07-21T02:23:17.396Z,21.83
2018-07-21T02:24:17.384Z,21.72
2018-07-21T02:25:17.416Z,21.75
2018-07-21T02:26:17.360Z,21.70
2018-07-21T02:27:17.354Z,21.70
2018-07-21T02:28:17.343Z,21.70
2018-07-21T02:29:17.332Z,21.69
2018-07-21T02:30:17.351Z,21.72
2018-07-21T02:31:17.312Z,21.76
2018-07-21T02:32:17.301Z,21.61
2018-07-21T02:33:17.320Z,21.55
2018-07-21T02:34:17.274Z,21.62
2018-07-21T02:35:17.271Z,21.67
2018-07-21T02:36:17.255Z,21.69
2018-07-21T02:37:17.246Z,21.75
2018-07-21T02:38:17.258Z,21.67
2018-07-21T02:39:17.284Z,21.66
2018-07-21T02:40:17.243Z,21.61
2018-07-21T02:41:17.228Z,21.67
2018-07-21T02:42:17.182Z,21.58
2018-07-21T02:43:17.174Z,21.55
2018-07-21T02:44:17.162Z,21.58
2018-07-21T02:45:17.186Z,21.62
2018-07-21T02:46:17.160Z,21.55
2018-07-21T02:47:17.129Z,21.54
2018-07-21T02:48:17.139Z,21.45
2018-07-21T02:49:17.108Z,21.45
2018-07-21T02:50:17.119Z,21.37
2018-07-21T02:51:17.084Z,21.35
2018-07-21T02:52:17.085Z,21.37
2018-07-21T02:53:17.097Z,21.27
2018-07-21T02:54:17.058Z,21.24
2018-07-21T02:55:17.047Z,21.29
2018-07-21T02:56:17.031Z,21.22
2018-07-21T02:57:17.056Z,21.30
2018-07-21T02:58:17.012Z,21.25
2018-07-21T02:59:17.001Z,21.25
2018-07-21T03:00:16.987Z,21.22
2018-07-21T03:01:16.972Z,21.22
2018-07-21T03:02:17.004Z,21.27
2018-07-21T03:03:16.957Z,21.22
2018-07-21T03:04:16.946Z,21.25
2018-07-21T03:05:16.940Z,21.27
2018-07-21T03:06:16.918Z,21.29
2018-07-21T03:07:16.952Z,21.18
2018-07-21T03:08:16.898Z,21.21
2018-07-21T03:09:16.885Z,21.27
2018-07-21T03:10:16.880Z,21.22
2018-07-21T03:11:16.875Z,21.15
2018-07-21T03:12:16.887Z,21.06
2018-07-21T03:13:16.839Z,21.09
2018-07-21T03:14:16.827Z,21.00
2018-07-21T03:15:16.819Z,21.06
2018-07-21T03:16:16.844Z,21.05
2018-07-21T03:17:16.798Z,21.00
2018-07-21T03:18:16.791Z,21.02
2018-07-21T03:19:16.774Z,20.92
2018-07-21T03:20:16.762Z,20.95
2018-07-21T03:21:16.782Z,20.96
2018-07-21T03:22:16.777Z,21.00
2018-07-21T03:23:16.800Z,20.93
2018-07-21T03:24:16.713Z,20.88
2018-07-21T03:25:16.705Z,20.96
2018-07-21T03:26:16.690Z,20.88
2018-07-21T03:27:16.685Z,20.93
2018-07-21T03:28:16.704Z,21.00
2018-07-21T03:29:16.690Z,20.95
2018-07-21T03:30:16.650Z,20.95
2018-07-21T03:31:16.636Z,20.97
2018-07-21T03:32:16.630Z,20.92
2018-07-21T03:33:16.611Z,20.88
2018-07-21T03:34:16.630Z,20.80
2018-07-21T03:35:16.629Z,20.77
2018-07-21T03:36:16.606Z,20.69
2018-07-21T03:37:16.594Z,20.66
2018-07-21T03:38:16.551Z,20.69
2018-07-21T03:39:16.549Z,20.69
2018-07-21T03:40:16.567Z,20.66
2018-07-21T03:41:16.524Z,20.70
2018-07-21T03:42:16.535Z,20.65
2018-07-21T03:43:16.531Z,20.63
2018-07-21T03:44:16.486Z,20.59
2018-07-21T03:45:16.473Z,20.55
2018-07-21T03:46:16.468Z,20.52
2018-07-21T03:47:16.459Z,20.55
2018-07-21T03:48:16.472Z,20.56
2018-07-21T03:49:16.431Z,20.48
2018-07-21T03:50:16.447Z,20.44
2018-07-21T03:51:16.466Z,20.50
2018-07-21T03:52:16.400Z,20.51
2018-07-21T03:53:16.410Z,20.48
2018-07-21T03:54:16.376Z,20.37
2018-07-21T03:55:16.399Z,20.39
2018-07-21T03:56:16.358Z,20.43
2018-07-21T03:57:16.341Z,20.29
2018-07-21T03:58:16.336Z,20.28
2018-07-21T03:59:16.348Z,20.31
2018-07-21T04:00:16.337Z,20.31
2018-07-21T04:01:16.295Z,20.29
2018-07-21T04:02:16.285Z,20.40
2018-07-21T04:03:16.274Z,20.28
2018-07-21T04:04:16.306Z,20.25
2018-07-21T04:05:16.250Z,20.32
2018-07-21T04:06:16.267Z,20.22
2018-07-21T04:07:16.253Z,20.18
2018-07-21T04:08:16.218Z,20.19
2018-07-21T04:09:16.209Z,20.11
2018-07-21T04:10:16.199Z,20.16
2018-07-21T04:11:16.218Z,20.21
2018-07-21T04:12:16.176Z,20.18
2018-07-21T04:13:16.165Z,20.04
2018-07-21T04:14:16.193Z,20.11
2018-07-21T04:15:16.179Z,20.07
2018-07-21T04:16:16.127Z,20.13
2018-07-21T04:17:16.122Z,20.03
2018-07-21T04:18:16.111Z,19.94
2018-07-21T04:19:16.127Z,20.11
2018-07-21T04:20:16.088Z,20.04
2018-07-21T04:21:16.107Z,19.96
2018-07-21T04:22:16.077Z,19.95
2018-07-21T04:23:16.055Z,19.89
2018-07-21T04:24:16.068Z,19.95
2018-07-21T04:25:16.062Z,19.88
2018-07-21T04:26:16.023Z,19.99
2018-07-21T04:27:16.015Z,19.94
2018-07-21T04:28:16.092Z,19.86
2018-07-21T04:29:15.985Z,19.82
2018-07-21T04:30:16.013Z,19.74
2018-07-21T04:31:15.970Z,19.70
2018-07-21T04:32:15.957Z,19.67
2018-07-21T04:33:15.972Z,19.69
2018-07-21T04:34:15.931Z,19.56
2018-07-21T04:35:15.924Z,19.56
2018-07-21T04:36:15.947Z,19.63
2018-07-21T04:37:15.901Z,19.63
2018-07-21T04:38:15.893Z,19.66
2018-07-21T04:39:15.907Z,19.66
2018-07-21T04:40:15.866Z,19.69
2018-07-21T04:41:15.859Z,19.70
2018-07-21T04:42:15.847Z,19.73
2018-07-21T04:43:15.870Z,19.85
2018-07-21T04:44:15.831Z,19.86
2018-07-21T04:45:15.815Z,19.88
2018-07-21T04:46:15.826Z,19.88
2018-07-21T04:47:15.810Z,19.88
2018-07-21T04:48:15.821Z,19.88
2018-07-21T04:49:15.775Z,19.88
2018-07-21T04:50:15.754Z,20.00
2018-07-21T04:51:15.778Z,20.11
2018-07-21T04:52:15.766Z,20.11
2018-07-21T04:53:15.725Z,20.03
2018-07-21T04:54:15.713Z,20.09
2018-07-21T04:55:15.732Z,20.03
2018-07-21T04:56:15.716Z,20.09
2018-07-21T04:57:15.678Z,20.09
2018-07-21T04:58:15.699Z,20.10
2018-07-21T04:59:15.687Z,20.09
2018-07-21T05:00:15.652Z,20.13
2018-07-21T05:01:15.636Z,20.14
2018-07-21T05:02:15.628Z,20.13
2018-07-21T05:03:15.617Z,20.14
2018-07-21T05:04:15.639Z,20.11
2018-07-21T05:05:15.593Z,20.14
2018-07-21T05:06:15.583Z,20.11
2018-07-21T05:07:15.570Z,20.07
2018-07-21T05:08:15.655Z,20.06
2018-07-21T05:09:15.549Z,20.14
2018-07-21T05:10:15.568Z,20.02
2018-07-21T05:11:15.529Z,20.09
2018-07-21T05:12:15.521Z,20.09
2018-07-21T05:13:15.499Z,20.09
2018-07-21T05:14:15.491Z,20.11
2018-07-21T05:15:15.517Z,20.10
2018-07-21T05:16:15.472Z,20.14
2018-07-21T05:17:15.461Z,20.10
2018-07-21T05:18:15.473Z,20.18
2018-07-21T05:19:15.437Z,20.19
2018-07-21T05:20:15.452Z,20.14
2018-07-21T05:21:15.422Z,20.28
2018-07-21T05:22:15.435Z,20.21
2018-07-21T05:23:15.394Z,20.40
2018-07-21T05:24:15.464Z,20.39
2018-07-21T05:25:15.371Z,20.52
2018-07-21T05:26:15.359Z,20.52
2018-07-21T05:27:15.380Z,20.48
2018-07-21T05:28:15.334Z,20.55
2018-07-21T05:29:15.325Z,20.51
2018-07-21T05:30:15.319Z,20.55
2018-07-21T05:31:15.300Z,20.59
2018-07-21T05:32:15.332Z,20.65
2018-07-21T05:33:15.276Z,20.62
2018-07-21T05:34:15.271Z,20.65
2018-07-21T05:35:15.288Z,20.67
2018-07-21T05:36:15.250Z,20.69
2018-07-21T05:37:15.232Z,20.72
2018-07-21T05:38:15.225Z,20.72
2018-07-21T05:39:15.240Z,20.78
2018-07-21T05:40:15.202Z,20.85
2018-07-21T05:41:15.190Z,20.88
2018-07-21T05:42:15.184Z,20.96
2018-07-21T05:43:15.219Z,20.85
2018-07-21T05:44:15.160Z,20.96
2018-07-21T05:45:15.141Z,21.02
2018-07-21T05:46:15.171Z,21.09
2018-07-21T05:47:15.126Z,21.00
2018-07-21T05:48:15.111Z,21.09
2018-07-21T05:49:15.095Z,21.11
2018-07-21T05:50:15.092Z,21.02
2018-07-21T05:51:15.106Z,21.12
2018-07-21T05:52:15.106Z,21.07
2018-07-21T05:53:15.112Z,21.03
2018-07-21T05:54:15.047Z,21.12
2018-07-21T05:55:15.038Z,21.09
2018-07-21T05:56:15.020Z,21.02
2018-07-21T05:57:15.044Z,21.18
2018-07-21T05:58:15.029Z,21.20
2018-07-21T05:59:14.986Z,21.24
2018-07-21T06:00:14.973Z,21.27
2018-07-21T06:01:14.962Z,21.21
2018-07-21T06:02:14.980Z,21.32
2018-07-21T06:03:14.952Z,21.32
2018-07-21T06:04:14.982Z,21.40
2018-07-21T06:05:14.923Z,21.50
2018-07-21T06:06:14.945Z,21.46
2018-07-21T06:07:14.911Z,21.42
2018-07-21T06:08:14.886Z,21.54
2018-07-21T06:09:14.878Z,21.57
2018-07-21T06:10:14.861Z,21.52
2018-07-21T06:11:14.880Z,21.62
2018-07-21T06:12:14.841Z,21.62
2018-07-21T06:13:14.834Z,21.60
2018-07-21T06:14:14.820Z,21.72
2018-07-21T06:15:14.817Z,21.70
2018-07-21T06:16:14.826Z,21.72
2018-07-21T06:17:14.787Z,21.70
2018-07-21T06:18:14.776Z,21.62
2018-07-21T06:19:14.791Z,21.61
2018-07-21T06:20:14.752Z,21.62
2018-07-21T06:21:14.755Z,21.73
2018-07-21T06:22:14.729Z,21.72
2018-07-21T06:23:14.742Z,21.75
2018-07-21T06:24:14.749Z,21.73
2018-07-21T06:25:14.742Z,21.69
2018-07-21T06:26:14.728Z,21.69
2018-07-21T06:27:14.713Z,21.76
2018-07-21T06:28:14.667Z,21.88
2018-07-21T06:29:14.652Z,21.79
2018-07-21T06:30:14.645Z,21.82
2018-07-21T06:31:14.631Z,21.92
2018-07-21T06:32:14.657Z,21.93
2018-07-21T06:33:14.647Z,21.88
2018-07-21T06:34:14.600Z,21.96
2018-07-21T06:35:14.595Z,21.96
2018-07-21T06:36:14.577Z,22.07
2018-07-21T06:37:14.568Z,22.13
2018-07-21T06:38:14.599Z,22.17
2018-07-21T06:39:14.581Z,22.11
2018-07-21T06:40:14.532Z,22.11
2018-07-21T06:41:14.524Z,22.15
2018-07-21T06:42:14.511Z,22.18
2018-07-21T06:43:14.579Z,22.11
2018-07-21T06:44:14.560Z,22.17
2018-07-21T06:45:14.481Z,22.11
2018-07-21T06:46:14.465Z,22.08
2018-07-21T06:47:14.457Z,22.15
2018-07-21T06:48:14.443Z,22.11
2018-07-21T06:49:14.462Z,22.11
2018-07-21T06:50:14.455Z,22.18
2018-07-21T06:51:14.411Z,22.17
2018-07-21T06:52:14.398Z,22.13
2018-07-21T06:53:14.425Z,22.22
2018-07-21T06:54:14.380Z,22.15
2018-07-21T06:55:14.372Z,22.25
2018-07-21T06:56:14.386Z,22.23
2018-07-21T06:57:14.356Z,22.26
2018-07-21T06:58:14.362Z,22.22
2018-07-21T06:59:14.364Z,22.22
2018-07-21T07:00:14.417Z,22.18
2018-07-21T07:01:14.312Z,22.28
2018-07-21T07:02:14.327Z,22.25
2018-07-21T07:03:14.278Z,22.30
2018-07-21T07:04:14.283Z,22.39
2018-07-21T07:05:14.291Z,22.50
2018-07-21T07:06:14.243Z,22.38
2018-07-21T07:07:14.243Z,22.44
2018-07-21T07:08:14.219Z,22.50
2018-07-21T07:09:14.238Z,22.51
2018-07-21T07:10:14.203Z,22.62
2018-07-21T07:11:14.241Z,22.62
2018-07-21T07:12:14.176Z,22.70
2018-07-21T07:13:14.164Z,22.62
2018-07-21T07:14:14.192Z,22.69
2018-07-21T07:15:14.151Z,22.69
2018-07-21T07:16:14.141Z,22.63
2018-07-21T07:17:14.149Z,22.68
2018-07-21T07:18:14.109Z,22.65
2018-07-21T07:19:14.173Z,22.76
2018-07-21T07:20:14.087Z,22.60
2018-07-21T07:21:14.077Z,22.65
2018-07-21T07:22:14.076Z,22.63
2018-07-21T07:23:14.059Z,22.66
2018-07-21T07:24:14.080Z,22.65
2018-07-21T07:25:14.031Z,22.72
2018-07-21T07:26:14.020Z,22.70
2018-07-21T07:27:14.006Z,22.68
2018-07-21T07:28:13.998Z,22.69
2018-07-21T07:29:14.027Z,22.68
2018-07-21T07:30:14.012Z,22.75
2018-07-21T07:31:13.966Z,22.80
2018-07-21T07:32:13.955Z,22.83
2018-07-21T07:33:13.940Z,22.85
2018-07-21T07:34:13.939Z,22.88
2018-07-21T07:35:13.964Z,22.87
2018-07-21T07:36:13.947Z,22.84
2018-07-21T07:37:13.916Z,22.94
2018-07-21T07:38:13.887Z,22.98
2018-07-21T07:39:13.872Z,22.96
2018-07-21T07:40:13.895Z,22.88
2018-07-21T07:41:13.854Z,22.99
2018-07-21T07:42:13.870Z,22.98
2018-07-21T07:43:13.858Z,23.00
2018-07-21T07:44:13.867Z,23.02
2018-07-21T07:45:13.817Z,22.99
2018-07-21T07:46:13.875Z,23.03
2018-07-21T07:47:13.791Z,22.98
2018-07-21T07:48:13.776Z,22.99
2018-07-21T07:49:13.813Z,23.03
2018-07-21T07:50:13.755Z,23.10
2018-07-21T07:51:13.775Z,23.06
2018-07-21T07:52:13.732Z,23.09
2018-07-21T07:53:13.728Z,23.10
2018-07-21T07:54:13.713Z,23.15
2018-07-21T07:55:13.696Z,23.18
2018-07-21T07:56:13.734Z,23.15
2018-07-21T07:57:13.683Z,23.15
2018-07-21T07:58:13.667Z,23.27
2018-07-21T07:59:13.694Z,23.24
2018-07-21T08:00:13.644Z,23.24
2018-07-21T08:01:13.660Z,23.27
2018-07-21T08:02:13.702Z,23.23
2018-07-21T08:03:13.660Z,23.23
2018-07-21T08:04:13.599Z,23.25
2018-07-21T08:05:13.607Z,23.32
2018-07-21T08:06:13.601Z,23.31
2018-07-21T08:07:13.578Z,23.36
2018-07-21T08:08:13.553Z,23.37
2018-07-21T08:09:13.591Z,23.31
2018-07-21T08:10:13.535Z,23.36
2018-07-21T08:11:13.559Z,23.46
2018-07-21T08:12:13.520Z,23.43
2018-07-21T08:13:13.624Z,23.51
2018-07-21T08:14:13.539Z,23.50
2018-07-21T08:15:13.483Z,23.50
2018-07-21T08:16:13.498Z,23.59
2018-07-21T08:17:13.488Z,23.62
2018-07-21T08:18:13.523Z,23.63
2018-07-21T08:19:13.469Z,23.69
2018-07-21T08:20:13.432Z,23.66
2018-07-21T08:21:13.412Z,23.77
2018-07-21T08:22:13.441Z,23.77
2018-07-21T08:23:13.393Z,23.78
2018-07-21T08:24:13.378Z,23.77
2018-07-21T08:25:13.364Z,23.87
2018-07-21T08:26:13.354Z,23.88
2018-07-21T08:27:13.362Z,23.92
2018-07-21T08:28:13.367Z,23.95
2018-07-21T08:29:13.383Z,24.03
2018-07-21T08:30:13.323Z,24.02
2018-07-21T08:31:13.301Z,24.05
2018-07-21T08:32:13.291Z,24.01
2018-07-21T08:33:13.285Z,24.06
2018-07-21T08:34:13.299Z,24.14
2018-07-21T08:35:13.256Z,24.14
2018-07-21T08:36:13.247Z,24.16
2018-07-21T08:37:13.237Z,24.16
2018-07-21T08:38:13.355Z,24.18
2018-07-21T08:39:13.214Z,24.21
2018-07-21T08:40:13.209Z,24.33
2018-07-21T08:41:13.219Z,24.36
2018-07-21T08:42:13.182Z,24.28
2018-07-21T08:43:13.227Z,24.32
2018-07-21T08:44:13.165Z,24.35
2018-07-21T08:45:13.144Z,24.38
2018-07-21T08:46:13.137Z,24.35
2018-07-21T08:47:13.131Z,24.42
2018-07-21T08:48:13.163Z,24.33
2018-07-21T08:49:13.102Z,24.43
2018-07-21T08:50:13.093Z,24.47
2018-07-21T08:51:13.079Z,24.47
2018-07-21T08:52:13.070Z,24.45
2018-07-21T08:53:13.087Z,24.48
2018-07-21T08:54:13.085Z,24.50
2018-07-21T08:55:13.034Z,24.43
2018-07-21T08:56:13.103Z,24.40
2018-07-21T08:57:13.011Z,24.53
2018-07-21T08:58:13.006Z,24.63
2018-07-21T08:59:13.015Z,24.57
2018-07-21T09:00:12.981Z,24.58
2018-07-21T09:01:12.971Z,24.69
2018-07-21T09:02:13.016Z,24.68
2018-07-21T09:03:12.956Z,24.73
2018-07-21T09:04:12.933Z,24.76
2018-07-21T09:05:12.929Z,24.68
2018-07-21T09:06:12.947Z,24.74
2018-07-21T09:07:12.902Z,24.76
2018-07-21T09:08:12.914Z,24.70
2018-07-21T09:09:12.885Z,24.85
2018-07-21T09:10:12.914Z,24.78
2018-07-21T09:11:12.859Z,24.85
2018-07-21T09:12:12.856Z,24.86
2018-07-21T09:13:12.909Z,24.93
2018-07-21T09:14:12.860Z,24.91
2018-07-21T09:15:12.829Z,24.88
2018-07-21T09:16:12.833Z,24.86
2018-07-21T09:17:12.797Z,24.91
2018-07-21T09:18:12.783Z,24.91
2018-07-21T09:19:12.800Z,24.88
2018-07-21T09:20:12.757Z,24.88
2018-07-21T09:21:12.754Z,24.85
2018-07-21T09:22:12.739Z,24.91
2018-07-21T09:23:12.752Z,24.93
2018-07-21T09:24:12.745Z,24.81
2018-07-21T09:25:12.715Z,24.92
2018-07-21T09:26:12.699Z,24.86
2018-07-21T09:27:12.718Z,24.88
2018-07-21T09:28:12.694Z,24.91
2018-07-21T09:29:12.689Z,25.03
2018-07-21T09:30:12.654Z,25.03
2018-07-21T09:31:12.702Z,24.95
2018-07-21T09:32:12.661Z,24.99
2018-07-21T09:33:12.617Z,25.07
2018-07-21T09:34:12.628Z,25.17
2018-07-21T09:35:12.593Z,25.13
2018-07-21T09:36:12.597Z,25.18
2018-07-21T09:37:12.610Z,25.17
2018-07-21T09:38:12.600Z,25.26
2018-07-21T09:39:12.561Z,25.31
2018-07-21T09:40:12.607Z,25.31
2018-07-21T09:41:12.538Z,25.46
2018-07-21T09:42:12.551Z,25.41
2018-07-21T09:43:12.508Z,25.33
2018-07-21T09:44:12.546Z,25.40
2018-07-21T09:45:12.485Z,25.38
2018-07-21T09:46:12.474Z,25.43
2018-07-21T09:47:12.461Z,25.36
2018-07-21T09:48:12.460Z,25.40
2018-07-21T09:49:12.579Z,25.32
2018-07-21T09:50:12.431Z,25.43
2018-07-21T09:51:12.429Z,25.43
2018-07-21T09:52:12.439Z,25.51
2018-07-21T09:53:12.398Z,25.46
2018-07-21T09:54:12.403Z,25.50
2018-07-21T09:55:12.445Z,25.48
2018-07-21T09:56:12.408Z,25.65
2018-07-21T09:57:12.359Z,25.62
2018-07-21T09:58:13.011Z,25.62
2018-07-21T09:59:12.379Z,25.69
2018-07-21T10:00:12.328Z,25.77
2018-07-21T10:01:12.344Z,25.69
2018-07-21T10:02:12.298Z,25.84
2018-07-21T10:03:12.284Z,25.81
2018-07-21T10:04:12.278Z,25.80
2018-07-21T10:05:12.294Z,25.84
2018-07-21T10:06:12.259Z,25.85
2018-07-21T10:07:12.277Z,25.90
2018-07-21T10:08:12.229Z,25.87
2018-07-21T10:09:12.252Z,25.95
2018-07-21T10:10:12.212Z,25.98
2018-07-21T10:11:12.211Z,26.00
2018-07-21T10:12:12.213Z,25.96
2018-07-21T10:13:12.181Z,26.00
2018-07-21T10:14:12.165Z,25.99
2018-07-21T10:15:12.153Z,26.03
2018-07-21T10:16:12.170Z,26.10
2018-07-21T10:17:12.170Z,26.22
2018-07-21T10:18:12.119Z,26.21
2018-07-21T10:19:12.113Z,26.18
2018-07-21T10:20:12.102Z,26.22
2018-07-21T10:21:12.117Z,26.22
2018-07-21T10:22:12.132Z,26.33
2018-07-21T10:23:12.071Z,26.28
2018-07-21T10:24:12.109Z,26.34
2018-07-21T10:25:12.045Z,26.29
2018-07-21T10:26:12.039Z,26.31
2018-07-21T10:27:12.045Z,26.37
2018-07-21T10:28:12.088Z,26.33
2018-07-21T10:29:12.001Z,26.34
2018-07-21T10:30:12.018Z,26.29
2018-07-21T10:31:11.988Z,26.37
2018-07-21T10:32:11.988Z,26.31
2018-07-21T10:33:11.993Z,26.47
2018-07-21T10:34:11.943Z,26.53
2018-07-21T10:35:12.007Z,26.53
2018-07-21T10:36:11.923Z,26.56
2018-07-21T10:37:11.937Z,26.55
2018-07-21T10:38:11.941Z,26.62
2018-07-21T10:39:11.917Z,26.60
2018-07-21T10:40:11.876Z,26.63
2018-07-21T10:41:11.870Z,26.62
2018-07-21T10:42:11.855Z,26.68
2018-07-21T10:43:11.843Z,26.71
2018-07-21T10:44:11.872Z,26.73
2018-07-21T10:45:11.857Z,26.68
2018-07-21T10:46:11.816Z,26.71
2018-07-21T10:47:11.802Z,26.80
2018-07-21T10:48:11.787Z,26.85
2018-07-21T10:49:11.784Z,26.84
2018-07-21T10:50:11.798Z,26.88
2018-07-21T10:51:11.815Z,26.88
2018-07-21T10:52:11.746Z,26.93
2018-07-21T10:53:11.771Z,26.95
2018-07-21T10:54:11.755Z,26.93
2018-07-21T10:55:11.714Z,26.99
2018-07-21T10:56:11.710Z,26.97
2018-07-21T10:57:11.703Z,26.95
2018-07-21T10:58:11.722Z,26.97
2018-07-21T10:59:11.669Z,27.02
2018-07-21T11:00:11.673Z,27.00
2018-07-21T11:01:11.678Z,27.03
2018-07-21T11:02:11.639Z,27.00
2018-07-21T11:03:11.627Z,27.10
2018-07-21T11:04:11.637Z,27.15
2018-07-21T11:05:11.602Z,27.14
2018-07-21T11:06:11.595Z,27.21
2018-07-21T11:07:11.669Z,27.29
2018-07-21T11:08:11.724Z,27.26
2018-07-21T11:09:11.577Z,27.25
2018-07-21T11:10:11.568Z,27.39
2018-07-21T11:11:11.544Z,27.35
2018-07-21T11:12:11.530Z,27.40
2018-07-21T11:13:11.558Z,27.35
2018-07-21T11:14:11.509Z,27.36
2018-07-21T11:15:11.561Z,27.54
2018-07-21T11:16:11.486Z,27.48
2018-07-21T11:17:11.477Z,27.54
2018-07-21T11:18:11.492Z,27.48
2018-07-21T11:19:11.505Z,27.55
2018-07-21T11:20:11.444Z,27.59
2018-07-21T11:21:11.440Z,27.65
2018-07-21T11:22:11.424Z,27.54
2018-07-21T11:23:11.413Z,27.60
2018-07-21T11:24:11.447Z,27.71
2018-07-21T11:25:11.392Z,27.70
2018-07-21T11:26:11.378Z,27.63
2018-07-21T11:27:11.378Z,27.78
2018-07-21T11:28:11.412Z,27.78
2018-07-21T11:29:11.344Z,27.83
2018-07-21T11:30:11.341Z,27.80
2018-07-21T11:31:11.418Z,27.78
2018-07-21T11:32:11.314Z,27.74
2018-07-21T11:33:11.304Z,27.77
2018-07-21T11:34:11.299Z,27.74
2018-07-21T11:35:11.380Z,27.80
2018-07-21T11:36:11.503Z,27.83
2018-07-21T11:37:11.271Z,27.86
2018-07-21T11:38:11.252Z,27.89
2018-07-21T11:39:11.267Z,27.89
2018-07-21T11:40:11.222Z,27.87
2018-07-21T11:41:11.260Z,27.92
2018-07-21T11:42:11.215Z,27.93
2018-07-21T11:43:11.199Z,28.00
2018-07-21T11:44:11.182Z,28.04
2018-07-21T11:45:11.170Z,28.01
2018-07-21T11:46:11.197Z,28.01
2018-07-21T11:47:11.252Z,27.93
2018-07-21T11:48:11.138Z,27.98
2018-07-21T11:49:11.122Z,28.12
2018-07-21T11:50:11.123Z,28.14
2018-07-21T11:51:11.133Z,28.12
2018-07-21T11:52:11.091Z,28.10
2018-07-21T11:53:11.078Z,28.07
2018-07-21T11:54:11.070Z,28.12
2018-07-21T11:55:11.060Z,28.26
2018-07-21T11:56:11.076Z,28.25
2018-07-21T11:57:11.052Z,28.27
2018-07-21T11:58:11.029Z,28.25
2018-07-21T11:59:11.072Z,28.22
2018-07-21T12:00:11.005Z,28.27
2018-07-21T12:01:10.999Z,28.29
2018-07-21T12:02:10.980Z,28.32
2018-07-21T12:03:10.972Z,28.29
2018-07-21T12:04:11.000Z,28.32
2018-07-21T12:05:10.951Z,28.30
2018-07-21T12:06:10.946Z,28.32
2018-07-21T12:07:10.958Z,28.32
2018-07-21T12:08:10.923Z,28.30
2018-07-21T12:09:10.904Z,28.32
2018-07-21T12:10:10.945Z,28.38
2018-07-21T12:11:10.888Z,28.35
2018-07-21T12:12:10.876Z,28.35
2018-07-21T12:13:10.983Z,28.29
2018-07-21T12:14:10.908Z,28.39
2018-07-21T12:15:10.877Z,28.45
2018-07-21T12:16:10.831Z,28.39
2018-07-21T12:17:10.829Z,28.45
2018-07-21T12:18:10.810Z,28.47
2018-07-21T12:19:10.799Z,28.41
2018-07-21T12:20:10.875Z,28.47
2018-07-21T12:21:10.821Z,28.32
2018-07-21T12:22:10.764Z,28.47
2018-07-21T12:23:10.758Z,28.45
2018-07-21T12:24:10.748Z,28.52
2018-07-21T12:25:10.744Z,28.56
2018-07-21T12:26:10.761Z,28.59
2018-07-21T12:27:10.714Z,28.45
2018-07-21T12:28:10.735Z,28.64
2018-07-21T12:29:10.704Z,28.66
2018-07-21T12:30:10.751Z,28.76
2018-07-21T12:31:10.669Z,28.66
2018-07-21T12:32:10.658Z,28.74
2018-07-21T12:33:10.689Z,28.81
2018-07-21T12:34:10.637Z,28.81
2018-07-21T12:35:10.634Z,28.75
2018-07-21T12:36:10.616Z,28.81
2018-07-21T12:37:10.607Z,28.85
2018-07-21T12:38:10.624Z,28.88
2018-07-21T12:39:10.630Z,28.93
2018-07-21T12:40:10.631Z,29.04
2018-07-21T12:41:10.554Z,28.97
2018-07-21T12:42:10.549Z,28.94
2018-07-21T12:43:10.544Z,28.91
2018-07-21T12:44:10.561Z,28.88
2018-07-21T12:45:10.517Z,28.91
2018-07-21T12:46:10.511Z,28.85
2018-07-21T12:47:10.562Z,28.89
2018-07-21T12:48:10.517Z,28.89
2018-07-21T12:49:10.467Z,28.85
2018-07-21T12:50:10.465Z,28.88
2018-07-21T12:51:10.448Z,28.85
2018-07-21T12:52:10.451Z,28.91